Time;durP1;ratioP1;P1;durP2;ratioP2;P2;SDS_P1;SDS_P2;PMS_P1;PMS_P2;Temp;Humidity;BMP_temperature;BMP_pressure;BME280_temperature;BME280_humidity;BME280_pressure;Samples;Min_cycle;Max_cycle;Signal;HPM_P1;HPM_P2
2022/08/22 00:00:13;;;;;;;11.85;7.03;;;17.70;84.50;;;;;;5010820;28;20087;-79
2022/08/22 00:03:03;;;;;;;9.30;7.20;;;17.60;84.50;;;;;;5010521;28;20049;-79
2022/08/22 00:05:45;;;;;;;11.20;8.07;;;17.50;84.50;;;;;;4994285;28;20056;-79
2022/08/22 00:08:45;;;;;;;9.15;6.70;;;17.50;84.30;;;;;;5010522;28;20042;-79
2022/08/22 00:12:11;;;;;;;11.30;7.88;;;17.50;84.60;;;;;;5010445;28;20038;-79
2022/08/22 00:14:55;;;;;;;15.07;9.40;;;17.50;84.60;;;;;;4964495;28;20058;-78
2022/08/22 00:17:35;;;;;;;;;;;17.40;84.20;;;;;;4994569;28;20045;-79
2022/08/22 00:20:47;;;;;;;13.70;11.52;;;17.40;85.00;;;;;;5010096;28;19917;-77
2022/08/22 00:23:25;;;;;;;20.23;12.65;;;17.40;84.90;;;;;;4999851;28;20129;-77
2022/08/22 00:26:16;;;;;;;16.90;12.23;;;17.40;84.80;;;;;;5010553;28;20394;-79
2022/08/22 00:29:10;;;;;;;14.35;11.13;;;17.40;84.60;;;;;;5010402;28;20038;-77
2022/08/22 00:31:42;;;;;;;13.70;10.02;;;17.40;84.90;;;;;;5010243;28;20046;-78
2022/08/22 00:34:14;;;;;;;16.55;10.32;;;17.30;84.80;;;;;;5010063;28;20046;-79
2022/08/22 00:37:19;;;;;;;16.77;10.68;;;17.40;84.90;;;;;;5010047;28;20167;-78
2022/08/22 00:39:47;;;;;;;;;;;17.40;85.30;;;;;;5011346;28;20255;-77
2022/08/22 00:42:44;;;;;;;15.18;10.93;;;17.40;85.90;;;;;;5009982;28;19922;-77
2022/08/22 00:45:39;;;;;;;15.73;9.63;;;17.30;85.30;;;;;;4993900;28;20375;-78
2022/08/22 00:48:28;;;;;;;12.95;10.65;;;17.30;85.20;;;;;;5009944;28;20046;-79
2022/08/22 00:51:25;;;;;;;16.40;11.18;;;17.30;85.30;;;;;;4993764;28;20049;-77
2022/08/22 00:54:05;;;;;;;19.20;11.13;;;17.30;85.50;;;;;;5009816;28;20041;-78
2022/08/22 00:57:02;;;;;;;18.75;10.68;;;17.30;85.30;;;;;;5009804;28;20074;-79
2022/08/22 00:59:49;;;;;;;12.25;10.27;;;17.20;85.30;;;;;;5009659;28;20037;-77
2022/08/22 01:02:40;;;;;;;12.82;9.93;;;17.20;85.30;;;;;;5009755;28;20498;-78
2022/08/22 01:05:31;;;;;;;19.73;10.50;;;17.20;85.30;;;;;;4993396;28;20038;-77
2022/08/22 01:08:14;;;;;;;17.52;10.48;;;17.20;85.40;;;;;;5009631;28;20042;-78
2022/08/22 01:11:05;;;;;;;17.25;10.90;;;17.10;85.30;;;;;;4993122;28;20049;-78
2022/08/22 01:13:30;;;;;;;18.35;10.10;;;17.10;85.40;;;;;;5008713;28;20038;-78
2022/08/22 01:16:26;;;;;;;17.20;11.40;;;17.10;85.30;;;;;;5009699;28;20049;-77
2022/08/22 01:18:58;;;;;;;16.50;10.63;;;17.10;85.60;;;;;;5009376;28;20042;-79
2022/08/22 01:21:48;;;;;;;16.13;10.73;;;17.00;85.50;;;;;;5009349;28;20049;-77
2022/08/22 01:24:25;;;;;;;18.17;11.90;;;17.00;85.40;;;;;;4993024;28;20038;-79
2022/08/22 01:27:23;;;;;;;14.95;10.23;;;17.00;85.40;;;;;;5009311;28;20042;-77
2022/08/22 01:29:49;;;;;;;14.23;10.45;;;16.90;85.40;;;;;;4992597;28;20493;-78
2022/08/22 01:32:20;;;;;;;17.75;10.38;;;16.90;85.30;;;;;;5009169;28;20141;-79
2022/08/22 01:35:06;;;;;;;15.35;10.05;;;16.90;85.20;;;;;;5009298;28;20050;-79
2022/08/22 01:38:02;;;;;;;16.25;11.02;;;16.90;85.20;;;;;;5009138;28;20060;-78
2022/08/22 01:41:05;;;;;;;14.07;10.60;;;16.80;85.20;;;;;;5009087;28;20042;-79
2022/08/22 01:44:06;;;;;;;12.95;11.57;;;16.80;85.40;;;;;;4992921;28;20084;-79
2022/08/22 01:47:05;;;;;;;12.55;10.10;;;16.80;85.40;;;;;;4993707;28;20106;-79
2022/08/22 01:49:34;;;;;;;14.32;11.73;;;16.70;85.20;;;;;;5009362;28;20041;-77
2022/08/22 01:52:43;;;;;;;12.73;11.15;;;16.70;85.10;;;;;;5009140;28;20394;-78
2022/08/22 01:55:23;;;;;;;15.10;11.07;;;16.70;85.40;;;;;;4992708;28;20053;-79
2022/08/22 01:58:03;;;;;;;12.98;10.75;;;16.60;85.30;;;;;;5009229;28;20045;-79
2022/08/22 02:00:50;;;;;;;13.98;10.27;;;16.60;85.40;;;;;;5008796;28;20049;-78
2022/08/22 02:03:49;;;;;;;14.40;10.02;;;16.60;85.40;;;;;;5008898;28;20049;-76
2022/08/22 02:06:30;;;;;;;11.85;9.27;;;16.50;85.70;;;;;;4992598;28;20167;-79
2022/08/22 02:09:11;;;;;;;11.70;9.25;;;16.50;85.60;;;;;;5008683;28;20037;-77
2022/08/22 02:11:51;;;;;;;12.30;9.40;;;16.50;85.60;;;;;;5008904;28;20394;-79
2022/08/22 02:14:37;;;;;;;15.27;10.23;;;16.50;85.70;;;;;;5008875;28;20041;-79
2022/08/22 02:17:26;;;;;;;13.27;10.45;;;16.40;85.90;;;;;;5008775;28;20578;-76
2022/08/22 02:20:22;;;;;;;13.48;8.48;;;16.40;86.20;;;;;;5008598;28;20077;-79
2022/08/22 02:22:59;;;;;;;11.73;7.50;;;16.40;86.00;;;;;;5008981;28;20114;-76
2022/08/22 02:25:31;;;;;;;7.47;4.65;;;16.30;85.80;;;;;;4995297;28;20064;-78
2022/08/22 02:28:12;;;;;;;4.38;3.50;;;16.20;85.70;;;;;;5012097;28;20049;-78
2022/08/22 02:30:48;;;;;;;2.95;2.75;;;16.10;85.90;;;;;;5011780;28;20132;-77
2022/08/22 02:33:36;;;;;;;3.10;2.55;;;16.10;85.80;;;;;;5012264;28;20469;-76
2022/08/22 02:36:17;;;;;;;2.78;2.40;;;16.00;85.80;;;;;;4980376;28;20107;-78
2022/08/22 02:39:05;;;;;;;4.65;3.25;;;15.90;85.90;;;;;;5012178;28;20103;-76
2022/08/22 02:41:49;;;;;;;4.05;3.65;;;15.90;86.10;;;;;;5011898;28;20052;-79
2022/08/22 02:44:34;;;;;;;3.88;2.78;;;15.90;86.30;;;;;;5011815;28;20134;-78
2022/08/22 02:47:13;;;;;;;2.22;1.90;;;15.80;86.10;;;;;;5011757;28;20046;-78
2022/08/22 02:50:10;;;;;;;2.47;1.90;;;15.70;85.90;;;;;;4995377;28;20042;-78
2022/08/22 02:52:53;;;;;;;2.28;1.70;;;15.70;86.00;;;;;;5011559;28;20614;-79
2022/08/22 02:55:41;;;;;;;4.22;2.10;;;15.60;86.00;;;;;;5011897;28;20402;-77
2022/08/22 02:58:35;;;;;;;4.25;2.75;;;15.60;85.90;;;;;;4995240;28;20497;-78
2022/08/22 03:01:20;;;;;;;4.20;2.13;;;15.60;86.00;;;;;;4995126;28;20505;-79
2022/08/22 03:03:46;;;;;;;3.50;2.63;;;15.60;86.10;;;;;;5011498;28;20088;-79
2022/08/22 03:06:59;;;;;;;3.10;2.60;;;15.60;85.90;;;;;;4995298;28;20048;-78
2022/08/22 03:09:31;;;;;;;2.70;2.50;;;15.60;86.10;;;;;;4917224;29;20895;-79
2022/08/22 03:12:27;;;;;;;6.50;3.80;;;15.60;86.00;;;;;;4901419;29;20068;-78
2022/08/22 03:14:56;;;;;;;2.92;2.25;;;15.70;86.30;;;;;;4989549;28;20409;-78
2022/08/22 03:17:32;;;;;;;4.30;2.75;;;15.60;86.20;;;;;;5011500;28;20391;-80
2022/08/22 03:20:11;;;;;;;4.72;2.50;;;15.60;86.10;;;;;;5011145;28;20044;-78
2022/08/22 03:23:01;;;;;;;3.13;2.58;;;15.50;86.10;;;;;;5011199;28;20049;-77
2022/08/22 03:25:59;;;;;;;3.58;2.97;;;15.50;86.20;;;;;;5011199;28;20041;-79
2022/08/22 03:28:44;;;;;;;3.90;3.42;;;15.50;86.30;;;;;;4981971;28;20050;-78
2022/08/22 03:31:22;;;;;;;5.82;3.42;;;15.40;86.30;;;;;;5010794;28;20498;-78
2022/08/22 03:34:12;;;;;;;5.70;3.00;;;15.40;86.30;;;;;;5011112;28;20121;-77
2022/08/22 03:36:39;;;;;;;4.60;3.13;;;15.40;86.70;;;;;;5010252;28;20070;-79
2022/08/22 03:39:16;;;;;;;4.10;3.10;;;15.30;86.70;;;;;;5011117;28;20507;-80
2022/08/22 03:41:56;;;;;;;4.72;3.45;;;15.30;86.60;;;;;;5010999;28;20042;-79
2022/08/22 03:45:00;;;;;;;3.83;3.42;;;15.30;86.70;;;;;;5011178;28;20397;-77
2022/08/22 03:47:49;;;;;;;3.50;3.20;;;15.30;86.90;;;;;;4974361;28;20050;-76
2022/08/22 03:50:38;;;;;;;3.38;2.90;;;15.20;86.70;;;;;;5010131;28;20231;-78
2022/08/22 03:53:23;;;;;;;4.60;2.33;;;15.20;86.90;;;;;;5011003;28;20042;-78
2022/08/22 03:56:06;;;;;;;4.72;2.20;;;15.10;86.90;;;;;;4994591;28;20041;-78
2022/08/22 03:58:41;;;;;;;7.47;2.70;;;15.10;87.00;;;;;;5010624;28;20048;-79
2022/08/22 04:01:21;;;;;;;3.85;2.35;;;15.00;86.70;;;;;;5010811;28;20065;-78
2022/08/22 04:04:01;;;;;;;4.45;2.50;;;14.90;86.90;;;;;;5010470;28;20049;-78
2022/08/22 04:07:02;;;;;;;4.80;2.90;;;14.90;87.00;;;;;;5010538;28;20129;-76
2022/08/22 04:09:34;;;;;;;5.05;3.55;;;14.90;87.40;;;;;;4959383;28;20102;-76
2022/08/22 04:12:31;;;;;;;20.00;5.35;;;14.90;87.20;;;;;;4993996;28;20037;-78
2022/08/22 04:15:39;;;;;;;23.10;4.63;;;14.90;87.60;;;;;;5010470;28;20042;-78
2022/08/22 04:18:37;;;;;;;15.32;3.80;;;14.90;87.60;;;;;;4993978;28;20050;-79
2022/08/22 04:21:12;;;;;;;2.47;2.28;;;14.80;87.80;;;;;;5001701;28;20194;-79
2022/08/22 04:23:50;;;;;;;2.72;2.53;;;14.90;87.80;;;;;;5010321;28;20053;-79
2022/08/22 04:26:32;;;;;;;2.40;2.20;;;14.80;87.60;;;;;;5010004;28;20056;-78
2022/08/22 04:29:21;;;;;;;3.35;2.72;;;14.80;87.50;;;;;;5009887;28;20041;-77
2022/08/22 04:31:55;;;;;;;2.35;1.92;;;14.80;87.60;;;;;;4995295;28;20049;-77
2022/08/22 04:34:30;;;;;;;2.55;2.35;;;14.80;87.40;;;;;;5009975;28;20094;-77
2022/08/22 04:37:04;;;;;;;2.85;2.40;;;14.80;87.40;;;;;;5010483;28;20061;-79
2022/08/22 04:39:37;;;;;;;2.17;1.98;;;14.80;87.70;;;;;;5010080;28;20073;-79
2022/08/22 04:42:13;;;;;;;1.70;1.60;;;14.70;87.60;;;;;;4993975;28;20049;-77
2022/08/22 04:45:00;;;;;;;2.08;1.30;;;14.70;87.50;;;;;;5010242;28;20464;-79
2022/08/22 04:48:03;;;;;;;1.30;1.20;;;14.70;87.80;;;;;;5009007;28;20049;-80
2022/08/22 04:50:50;;;;;;;2.45;1.30;;;14.70;87.80;;;;;;4997340;28;20089;-78
2022/08/22 04:53:54;;;;;;;1.90;1.80;;;14.70;87.80;;;;;;5009904;28;20088;-78
2022/08/22 04:56:34;;;;;;;2.22;1.45;;;14.70;87.90;;;;;;4988915;28;20405;-77
2022/08/22 04:59:09;;;;;;;2.95;1.38;;;14.70;88.10;;;;;;5009726;28;20121;-77
2022/08/22 05:01:53;;;;;;;1.38;1.20;;;14.80;88.10;;;;;;5009779;28;20046;-76
2022/08/22 05:04:53;;;;;;;0.85;0.85;;;14.80;88.30;;;;;;5009717;28;20403;-78
2022/08/22 05:07:23;;;;;;;4.03;2.55;;;14.80;88.20;;;;;;4956297;28;20057;-79
2022/08/22 05:09:58;;;;;;;2.17;1.92;;;14.80;88.20;;;;;;5009673;28;20046;-78
2022/08/22 05:12:36;;;;;;;3.70;1.98;;;14.80;88.20;;;;;;5009480;28;20077;-77
2022/08/22 05:15:14;;;;;;;3.95;2.33;;;14.90;88.30;;;;;;5009534;28;20517;-79
2022/08/22 05:17:44;;;;;;;2.72;2.13;;;14.80;88.40;;;;;;4993200;28;20539;-78
2022/08/22 05:20:16;;;;;;;2.97;2.67;;;14.90;88.40;;;;;;4993055;28;20581;-78
2022/08/22 05:22:45;;;;;;;4.53;2.92;;;14.90;88.50;;;;;;4993115;28;20080;-76
2022/08/22 05:25:17;;;;;;;3.85;2.60;;;15.00;88.60;;;;;;5009658;28;20389;-78
2022/08/22 05:27:48;;;;;;;3.35;2.67;;;15.00;88.60;;;;;;5009418;28;20053;-77
2022/08/22 05:30:28;;;;;;;2.80;2.50;;;15.00;88.60;;;;;;5009127;28;20069;-77
2022/08/22 05:33:15;;;;;;;6.18;3.67;;;15.10;88.80;;;;;;5009283;28;20111;-77
2022/08/22 05:36:13;;;;;;;7.43;4.05;;;15.20;88.90;;;;;;4992994;28;20129;-77
2022/08/22 05:38:56;;;;;;;7.13;4.60;;;15.20;89.00;;;;;;5002348;28;20119;-78
2022/08/22 05:41:26;;;;;;;10.68;5.57;;;15.30;88.90;;;;;;5009211;28;20512;-78
2022/08/22 05:43:53;;;;;;;12.90;6.40;;;15.40;88.80;;;;;;4992824;28;20042;-78
2022/08/22 05:46:39;;;;;;;10.35;6.45;;;15.40;88.80;;;;;;5009164;28;20046;-78
2022/08/22 05:49:17;;;;;;;12.80;7.20;;;15.50;88.70;;;;;;5009061;28;20178;-77
2022/08/22 05:52:15;;;;;;;10.88;7.43;;;15.60;88.80;;;;;;4992661;28;20042;-78
2022/08/22 05:55:08;;;;;;;16.25;7.20;;;15.60;89.10;;;;;;5009087;28;20046;-77
2022/08/22 05:57:38;;;;;;;12.90;6.85;;;15.70;89.30;;;;;;5009370;28;20117;-77
2022/08/22 06:00:19;;;;;;;10.23;6.53;;;15.70;89.10;;;;;;5011303;28;20042;-78
2022/08/22 06:03:00;;;;;;;10.48;7.70;;;15.80;89.10;;;;;;4996209;28;20486;-77
2022/08/22 06:05:29;;;;;;;9.05;5.95;;;15.80;89.10;;;;;;5012458;28;20077;-78
2022/08/22 06:08:19;;;;;;;9.85;5.97;;;15.90;89.10;;;;;;5012481;28;20038;-77
2022/08/22 06:10:50;;;;;;;7.97;5.25;;;15.90;89.30;;;;;;5012216;28;20124;-79
2022/08/22 06:13:28;;;;;;;11.23;5.88;;;16.00;89.20;;;;;;5012385;28;20042;-78
2022/08/22 06:16:04;;;;;;;10.07;5.57;;;16.00;89.20;;;;;;5012591;28;20129;-78
2022/08/22 06:18:31;;;;;;;8.35;4.32;;;16.00;89.10;;;;;;5012507;28;20034;-78
2022/08/22 06:20:59;;;;;;;10.15;6.20;;;16.00;89.20;;;;;;5012396;28;20049;-77
2022/08/22 06:23:48;;;;;;;7.78;5.70;;;16.00;89.20;;;;;;5012434;28;20485;-79
2022/08/22 06:26:15;;;;;;;7.75;5.32;;;16.10;89.30;;;;;;5012274;28;20046;-79
2022/08/22 06:28:46;;;;;;;10.55;5.95;;;16.10;89.10;;;;;;5012048;28;20042;-77
2022/08/22 06:31:43;;;;;;;10.20;6.65;;;16.20;89.20;;;;;;5011810;28;20091;-77
2022/08/22 06:34:15;;;;;;;8.32;6.05;;;16.10;89.40;;;;;;5011255;28;20053;-79
2022/08/22 06:36:47;;;;;;;9.10;4.60;;;16.20;89.30;;;;;;5011980;28;20038;-78
2022/08/22 06:39:19;;;;;;;7.28;5.20;;;16.20;89.40;;;;;;5012163;28;20045;-77
2022/08/22 06:41:54;;;;;;;8.68;5.60;;;16.20;89.40;;;;;;5011773;28;20511;-77
2022/08/22 06:44:43;;;;;;;9.32;5.20;;;16.20;89.40;;;;;;5011582;28;20116;-76
2022/08/22 06:47:15;;;;;;;6.57;4.70;;;16.20;89.40;;;;;;5010938;28;20057;-78
2022/08/22 06:49:43;;;;;;;8.98;5.43;;;16.20;89.40;;;;;;5009529;28;20041;-77
2022/08/22 06:52:20;;;;;;;7.40;6.00;;;16.20;89.50;;;;;;5011546;28;20494;-78
2022/08/22 06:54:48;;;;;;;10.65;6.05;;;16.20;89.40;;;;;;5011918;28;20095;-79
2022/08/22 06:57:34;;;;;;;6.45;5.55;;;16.20;89.90;;;;;;5011904;28;20046;-80
2022/08/22 07:00:08;;;;;;;9.30;6.32;;;16.20;90.00;;;;;;5011527;28;20038;-78
2022/08/22 07:02:44;;;;;;;10.55;5.68;;;16.20;89.70;;;;;;4995268;28;20481;-81
2022/08/22 07:05:19;;;;;;;7.53;6.15;;;16.20;89.60;;;;;;5011817;28;20239;-82
2022/08/22 07:07:45;;;;;;;10.48;6.97;;;16.30;89.60;;;;;;4995438;28;20068;-80
2022/08/22 07:10:16;;;;;;;8.57;7.55;;;16.30;89.70;;;;;;4994371;28;20478;-81
2022/08/22 07:12:49;;;;;;;12.00;7.47;;;16.30;89.70;;;;;;4992322;28;20045;-81
2022/08/22 07:15:35;;;;;;;11.18;8.35;;;16.40;89.80;;;;;;4994606;28;20071;-81
2022/08/22 07:18:14;;;;;;;14.55;8.80;;;16.40;89.80;;;;;;5008831;28;20030;-80
2022/08/22 07:20:44;;;;;;;10.32;7.72;;;16.50;89.80;;;;;;5008307;28;20075;-81
2022/08/22 07:23:13;;;;;;;10.15;7.38;;;16.60;89.80;;;;;;5011120;28;20101;-80
2022/08/22 07:25:50;;;;;;;10.90;6.13;;;16.80;89.60;;;;;;5007866;28;20035;-81
2022/08/22 07:28:39;;;;;;;11.20;6.72;;;17.00;89.60;;;;;;4975413;28;20039;-81
2022/08/22 07:31:21;;;;;;;10.25;5.82;;;17.20;89.20;;;;;;4991312;28;20501;-82
2022/08/22 07:33:53;;;;;;;11.85;6.45;;;17.40;88.70;;;;;;4975311;28;20042;-81
2022/08/22 07:36:30;;;;;;;14.30;7.35;;;17.60;88.90;;;;;;5008093;28;20043;-81
2022/08/22 07:39:08;;;;;;;17.10;7.50;;;17.80;88.40;;;;;;5024149;28;20043;-80
2022/08/22 07:42:12;;;;;;;14.30;6.20;;;18.00;88.20;;;;;;5024514;28;20487;-83
2022/08/22 07:45:14;;;;;;;14.25;6.50;;;18.20;87.90;;;;;;5023622;28;20058;-81
2022/08/22 07:47:59;;;;;;;13.45;5.30;;;18.50;87.70;;;;;;5024087;28;20046;-78
2022/08/22 07:50:41;;;;;;;10.68;3.97;;;18.60;86.70;;;;;;5024183;28;20057;-78
2022/08/22 07:53:35;;;;;;;9.65;4.38;;;18.80;85.40;;;;;;5023790;28;20365;-77
2022/08/22 07:56:03;;;;;;;11.50;5.03;;;18.90;85.30;;;;;;4991169;28;20049;-79
2022/08/22 07:58:32;;;;;;;9.73;4.43;;;19.00;84.60;;;;;;5023904;28;20039;-78
2022/08/22 08:00:58;;;;;;;13.32;4.18;;;19.20;84.10;;;;;;4991296;28;20045;-78
2022/08/22 08:03:28;;;;;;;12.20;5.32;;;19.20;83.60;;;;;;5023599;28;20506;-77
2022/08/22 08:05:54;;;;;;;9.95;4.30;;;19.40;83.20;;;;;;4991055;28;20038;-79
2022/08/22 08:08:37;;;;;;;11.38;4.68;;;19.50;83.30;;;;;;4991235;28;20394;-79
2022/08/22 08:11:05;;;;;;;9.73;4.28;;;19.60;82.90;;;;;;5023550;28;20046;-77
2022/08/22 08:13:39;;;;;;;10.70;5.00;;;19.70;82.90;;;;;;5058162;28;20046;-78
2022/08/22 08:16:09;;;;;;;12.32;4.63;;;19.90;82.40;;;;;;4990926;28;20038;-77
2022/08/22 08:18:37;;;;;;;18.17;5.32;;;19.90;82.40;;;;;;5023922;28;20406;-79
2022/08/22 08:21:07;;;;;;;12.13;4.82;;;20.00;82.30;;;;;;5076224;28;20042;-78
2022/08/22 08:23:44;;;;;;;13.48;4.05;;;20.20;82.10;;;;;;5003866;28;20080;-78
2022/08/22 08:26:20;;;;;;;9.68;3.67;;;20.20;81.60;;;;;;5005469;28;20444;-76
2022/08/22 08:28:49;;;;;;;7.38;3.28;;;20.40;81.40;;;;;;5003591;28;20102;-76
2022/08/22 08:31:23;;;;;;;10.10;3.67;;;20.40;80.50;;;;;;5002974;28;20062;-77
2022/08/22 08:33:52;;;;;;;;;;;20.50;80.20;;;;;;5004121;28;21495;-76
2022/08/22 08:36:38;;;;;;;10.65;3.20;;;20.60;77.50;;;;;;5003193;28;19950;-76
2022/08/22 08:39:28;;;;;;;8.70;2.95;;;20.70;78.40;;;;;;5001376;28;20398;-77
2022/08/22 08:42:06;;;;;;;9.60;3.20;;;20.80;78.20;;;;;;4988120;28;20410;-76
2022/08/22 08:44:49;;;;;;;10.43;3.15;;;20.90;78.10;;;;;;5003829;28;20133;-76
2022/08/22 08:47:46;;;;;;;9.18;3.50;;;20.90;77.80;;;;;;5001052;28;20053;-77
2022/08/22 08:50:36;;;;;;;11.10;3.42;;;20.90;76.60;;;;;;4987112;28;20095;-76
2022/08/22 08:53:26;;;;;;;12.35;4.20;;;21.00;75.80;;;;;;4987235;28;20046;-77
2022/08/22 08:56:02;;;;;;;10.93;3.70;;;21.00;75.80;;;;;;5003103;28;20061;-77
2022/08/22 08:58:47;;;;;;;7.18;3.35;;;21.20;76.30;;;;;;5002538;28;20056;-77
2022/08/22 09:01:38;;;;;;;11.85;3.92;;;21.30;76.00;;;;;;4987069;28;20042;-77
2022/08/22 09:04:16;;;;;;;9.48;4.25;;;21.50;75.60;;;;;;5003304;28;20110;-75
2022/08/22 09:07:09;;;;;;;9.07;4.20;;;21.40;74.50;;;;;;5002699;28;20042;-78
2022/08/22 09:09:53;;;;;;;9.65;3.72;;;21.40;72.90;;;;;;5002092;28;20462;-78
2022/08/22 09:12:42;;;;;;;11.40;2.80;;;21.50;72.50;;;;;;5002995;28;20057;-76
2022/08/22 09:15:25;;;;;;;9.70;3.35;;;21.60;71.90;;;;;;4974290;28;20057;-78
2022/08/22 09:18:03;;;;;;;10.05;3.20;;;21.70;72.10;;;;;;5002063;28;20049;-76
2022/08/22 09:20:46;;;;;;;5.57;2.60;;;21.80;71.70;;;;;;4988563;28;20063;-76
2022/08/22 09:23:50;;;;;;;6.93;2.53;;;21.90;69.40;;;;;;5009483;28;20046;-75
2022/08/22 09:26:23;;;;;;;6.43;2.20;;;22.10;70.20;;;;;;4991711;28;20529;-77
2022/08/22 09:29:12;;;;;;;8.23;2.70;;;22.20;69.50;;;;;;4993016;28;20479;-75
2022/08/22 09:32:05;;;;;;;6.90;2.88;;;22.30;69.70;;;;;;5009185;28;20089;-76
2022/08/22 09:34:45;;;;;;;8.80;2.47;;;22.40;69.20;;;;;;5008781;28;20075;-76
2022/08/22 09:37:20;;;;;;;5.90;2.80;;;22.50;67.10;;;;;;5009212;28;20038;-75
2022/08/22 09:39:56;;;;;;;8.75;3.22;;;22.50;65.90;;;;;;5009464;28;20511;-76
2022/08/22 09:42:49;;;;;;;11.00;2.97;;;22.60;66.20;;;;;;5009208;28;20050;-75
2022/08/22 09:45:29;;;;;;;7.50;2.92;;;22.70;66.10;;;;;;5009162;28;20057;-75
2022/08/22 09:48:17;;;;;;;6.20;2.67;;;22.90;66.80;;;;;;5009164;28;20045;-77
2022/08/22 09:51:01;;;;;;;6.45;2.58;;;23.00;65.20;;;;;;5009007;28;20050;-76
2022/08/22 09:54:04;;;;;;;6.38;2.45;;;23.20;66.30;;;;;;5009086;28;20094;-78
2022/08/22 09:56:51;;;;;;;6.85;2.63;;;23.40;65.20;;;;;;5008934;28;20558;-75
2022/08/22 09:59:55;;;;;;;6.57;2.13;;;23.50;59.40;;;;;;5008974;28;20110;-74
2022/08/22 10:02:30;;;;;;;8.10;2.70;;;23.50;62.60;;;;;;5009263;28;20397;-74
2022/08/22 10:05:02;;;;;;;8.30;2.60;;;23.60;62.90;;;;;;5009188;28;20061;-75
2022/08/22 10:07:31;;;;;;;6.30;2.00;;;23.70;61.80;;;;;;4990776;28;20129;-76
2022/08/22 10:10:19;;;;;;;7.53;2.78;;;23.80;62.70;;;;;;5007033;28;20049;-77
2022/08/22 10:13:21;;;;;;;4.22;2.03;;;23.90;61.60;;;;;;5008645;28;20061;-77
2022/08/22 10:16:00;;;;;;;4.97;2.10;;;24.00;61.50;;;;;;5008991;28;20038;-77
2022/08/22 10:18:32;;;;;;;7.47;2.60;;;24.10;61.70;;;;;;5008940;28;20034;-76
2022/08/22 10:21:06;;;;;;;6.50;2.33;;;24.30;61.30;;;;;;5008607;28;20034;-76
2022/08/22 10:24:00;;;;;;;6.32;2.30;;;24.50;61.00;;;;;;5009000;28;20037;-77
2022/08/22 10:26:47;;;;;;;7.63;2.90;;;24.60;59.30;;;;;;5008643;28;20504;-77
2022/08/22 10:29:42;;;;;;;7.47;2.50;;;24.70;58.80;;;;;;5008515;28;20042;-77
2022/08/22 10:32:37;;;;;;;6.55;2.38;;;24.80;56.60;;;;;;5008617;28;20146;-77
2022/08/22 10:35:30;;;;;;;4.43;2.25;;;25.00;57.80;;;;;;5008548;28;20046;-77
2022/08/22 10:38:08;;;;;;;7.57;2.40;;;25.00;53.90;;;;;;5008861;28;20081;-78
2022/08/22 10:40:40;;;;;;;6.25;2.35;;;25.00;57.90;;;;;;5008913;28;20401;-76
2022/08/22 10:43:17;;;;;;;4.43;2.40;;;25.10;57.40;;;;;;5008567;28;20046;-76
2022/08/22 10:45:46;;;;;;;8.05;2.50;;;25.20;57.60;;;;;;5010165;28;20046;-77
2022/08/22 10:48:54;;;;;;;5.10;2.47;;;25.10;55.10;;;;;;5012034;28;20050;-77
2022/08/22 10:51:27;;;;;;;5.93;2.28;;;25.20;55.90;;;;;;5056886;28;20047;-77
2022/08/22 10:54:08;;;;;;;5.00;2.05;;;25.30;54.50;;;;;;5016886;28;20041;-77
2022/08/22 10:56:56;;;;;;;5.28;2.60;;;25.40;54.50;;;;;;5011968;28;20449;-78
2022/08/22 10:59:44;;;;;;;7.03;2.50;;;25.60;55.60;;;;;;5011882;28;20390;-78
2022/08/22 11:02:37;;;;;;;5.88;2.17;;;25.80;54.70;;;;;;5011900;28;20045;-77
2022/08/22 11:05:31;;;;;;;6.60;2.72;;;25.90;54.30;;;;;;5011815;28;20042;-77
2022/08/22 11:08:09;;;;;;;7.13;2.88;;;25.90;51.20;;;;;;4997045;28;20141;-77
2022/08/22 11:10:57;;;;;;;8.25;2.67;;;25.60;53.40;;;;;;4995029;28;20525;-77
2022/08/22 11:13:36;;;;;;;8.23;2.80;;;25.80;53.60;;;;;;5011783;28;20084;-77
2022/08/22 11:16:28;;;;;;;5.07;2.20;;;25.90;53.90;;;;;;4995087;28;20524;-78
2022/08/22 11:19:03;;;;;;;5.07;2.53;;;25.90;51.60;;;;;;5011534;28;20394;-76
2022/08/22 11:21:55;;;;;;;6.55;2.45;;;26.10;54.00;;;;;;5011218;28;20042;-77
2022/08/22 11:24:51;;;;;;;8.40;3.35;;;26.30;51.40;;;;;;5032049;28;20046;-78
2022/08/22 11:27:31;;;;;;;7.47;3.38;;;26.20;52.10;;;;;;4994978;28;20041;-77
2022/08/22 11:30:15;;;;;;;8.82;2.30;;;26.40;52.20;;;;;;5011140;28;20382;-77
2022/08/22 11:33:25;;;;;;;9.80;2.55;;;26.30;52.00;;;;;;5011150;28;20405;-76
2022/08/22 11:36:03;;;;;;;4.85;2.00;;;26.50;53.10;;;;;;4994664;28;20077;-78
2022/08/22 11:38:38;;;;;;;7.22;2.20;;;26.70;53.60;;;;;;5011538;28;20424;-77
2022/08/22 11:41:15;;;;;;;10.77;2.50;;;26.90;51.90;;;;;;5010901;28;20045;-76
2022/08/22 11:44:09;;;;;;;5.40;2.35;;;26.90;51.80;;;;;;5011236;28;20041;-77
2022/08/22 11:46:39;;;;;;;;;;;27.00;52.80;;;;;;5011372;28;20053;-77
2022/08/22 11:49:11;;;;;;;9.30;2.90;;;27.10;50.20;;;;;;4994408;28;20003;-77
2022/08/22 11:52:05;;;;;;;7.53;3.05;;;27.30;52.90;;;;;;4994614;28;20042;-77
2022/08/22 11:55:15;;;;;;;5.20;2.38;;;27.30;50.80;;;;;;4994441;28;20038;-77
2022/08/22 11:57:42;;;;;;;6.45;2.83;;;27.20;49.70;;;;;;4996238;28;20041;-77
2022/08/22 12:00:17;;;;;;;7.95;2.20;;;27.10;51.30;;;;;;5010890;28;20386;-77
2022/08/22 12:02:45;;;;;;;7.00;2.75;;;26.80;49.30;;;;;;5010979;28;20081;-76
2022/08/22 12:05:25;;;;;;;6.60;2.50;;;26.60;51.10;;;;;;5010642;28;20041;-76
2022/08/22 12:07:58;;;;;;;8.23;4.32;;;26.60;51.20;;;;;;5010625;28;20087;-77
2022/08/22 12:10:41;;;;;;;6.72;2.30;;;26.60;52.40;;;;;;5010438;28;20049;-77
2022/08/22 12:14:01;;;;;;;5.70;2.83;;;26.80;51.90;;;;;;5010450;28;20038;-77
2022/08/22 12:16:38;;;;;;;7.78;2.40;;;27.10;49.40;;;;;;5010449;28;20296;-77
2022/08/22 12:19:27;;;;;;;9.43;2.40;;;27.10;48.10;;;;;;5010408;28;20088;-76
2022/08/22 12:22:31;;;;;;;8.63;2.30;;;27.30;51.00;;;;;;5010264;28;20042;-78
2022/08/22 12:25:06;;;;;;;5.38;2.65;;;27.40;49.10;;;;;;5010301;28;20041;-77
2022/08/22 12:27:40;;;;;;;6.22;2.20;;;27.60;49.30;;;;;;5010234;28;20072;-77
2022/08/22 12:30:13;;;;;;;5.15;2.40;;;27.90;50.10;;;;;;4993681;28;20054;-76
2022/08/22 12:32:48;;;;;;;6.67;2.17;;;28.10;49.80;;;;;;5010256;28;20089;-76
2022/08/22 12:35:16;;;;;;;6.10;2.53;;;28.40;49.40;;;;;;5010450;28;20334;-76
2022/08/22 12:38:15;;;;;;;4.80;2.20;;;28.40;49.30;;;;;;5010122;28;20042;-77
2022/08/22 12:41:02;;;;;;;4.65;2.45;;;28.60;47.60;;;;;;5010025;28;20038;-76
2022/08/22 12:44:05;;;;;;;4.90;2.00;;;28.70;47.90;;;;;;5010291;28;20045;-78
2022/08/22 12:46:34;;;;;;;8.82;2.78;;;28.80;47.20;;;;;;5010065;28;20046;-77
2022/08/22 12:49:21;;;;;;;7.65;2.42;;;28.90;48.80;;;;;;5010118;28;20041;-77
2022/08/22 12:52:02;;;;;;;10.65;2.95;;;28.70;48.20;;;;;;5009902;28;20068;-78
2022/08/22 12:55:10;;;;;;;7.65;3.08;;;28.30;48.40;;;;;;5009894;28;20034;-78
2022/08/22 12:57:56;;;;;;;10.18;2.63;;;27.90;47.10;;;;;;5009771;28;20078;-77
2022/08/22 13:00:49;;;;;;;7.65;2.85;;;27.70;49.20;;;;;;5009805;28;20505;-77
2022/08/22 13:03:17;;;;;;;6.88;2.55;;;27.40;49.40;;;;;;4994348;28;20119;-77
2022/08/22 13:05:46;;;;;;;7.68;2.80;;;27.30;50.00;;;;;;4993646;28;20393;-78
2022/08/22 13:08:20;;;;;;;7.90;2.80;;;27.10;50.80;;;;;;5009006;28;20041;-76
2022/08/22 13:11:00;;;;;;;7.22;2.50;;;27.00;51.50;;;;;;5009651;28;20083;-77
2022/08/22 13:13:36;;;;;;;5.10;2.30;;;27.10;52.40;;;;;;5009635;28;20054;-80
2022/08/22 13:16:07;;;;;;;8.13;2.85;;;27.20;52.70;;;;;;5009799;28;20386;-76
2022/08/22 13:18:38;;;;;;;6.47;2.22;;;27.40;53.50;;;;;;5009564;28;20049;-75
2022/08/22 13:21:08;;;;;;;7.45;2.80;;;27.50;53.00;;;;;;5009452;28;20042;-77
2022/08/22 13:23:43;;;;;;;6.07;2.42;;;27.40;52.00;;;;;;5009443;28;20042;-78
2022/08/22 13:26:12;;;;;;;7.18;2.35;;;27.20;50.60;;;;;;5009698;28;20505;-77
2022/08/22 13:29:07;;;;;;;8.02;2.53;;;27.00;50.90;;;;;;5009292;28;20049;-77
2022/08/22 13:31:36;;;;;;;5.47;1.98;;;26.90;50.90;;;;;;5009066;28;20054;-77
2022/08/22 13:34:11;;;;;;;8.90;3.25;;;27.10;51.00;;;;;;5009277;28;20083;-77
2022/08/22 13:36:44;;;;;;;8.77;2.80;;;27.10;48.60;;;;;;5009187;28;20489;-77
2022/08/22 13:39:13;;;;;;;7.40;2.92;;;27.00;50.10;;;;;;5009132;28;20042;-77
2022/08/22 13:41:48;;;;;;;10.20;3.80;;;26.90;49.70;;;;;;5009162;28;20041;-77
2022/08/22 13:44:25;;;;;;;8.15;2.33;;;26.90;49.40;;;;;;5009155;28;20050;-78
2022/08/22 13:46:54;;;;;;;6.80;2.70;;;26.90;50.40;;;;;;4992871;28;20053;-77
2022/08/22 13:49:32;;;;;;;7.82;3.13;;;26.80;50.20;;;;;;5008918;28;20124;-77
2022/08/22 13:52:17;;;;;;;6.10;2.42;;;26.90;50.50;;;;;;5009239;28;20046;-78
2022/08/22 13:54:53;;;;;;;4.85;2.65;;;27.20;50.30;;;;;;5009390;28;20081;-77
2022/08/22 13:57:35;;;;;;;6.15;2.80;;;27.40;50.00;;;;;;5009006;28;20049;-76
2022/08/22 14:00:11;;;;;;;6.80;2.67;;;27.40;49.60;;;;;;5008881;28;20076;-76